Time;durP1;ratioP1;P1;durP2;ratioP2;P2;SDS_P1;SDS_P2;PMS_P1;PMS_P2;Temp;Humidity;BMP_temperature;BMP_pressure;BME280_temperature;BME280_humidity;BME280_pressure;Samples;Min_cycle;Max_cycle;Signal;HPM_P1;HPM_P2
2023/12/12 00:00:30;;;;;;;;;;;8.20;99.90;;;;;;5065736;28;20019;-91
2023/12/12 00:02:57;;;;;;;;;;;8.10;99.90;;;;;;5075199;28;19923;-91
2023/12/12 00:05:25;;;;;;;;;;;8.20;99.90;;;;;;5068988;28;20405;-91
2023/12/12 00:07:51;;;;;;;;;;;8.10;99.90;;;;;;5079353;28;19995;-89
2023/12/12 00:10:16;;;;;;;;;;;8.10;99.90;;;;;;5075643;28;20034;-89
2023/12/12 00:12:42;;;;;;;;;;;8.20;99.90;;;;;;5077334;28;19916;-91
2023/12/12 00:15:08;;;;;;;;;;;8.00;99.90;;;;;;5093720;27;19923;-90
2023/12/12 00:17:34;;;;;;;;;;;8.00;99.90;;;;;;5075161;28;19920;-90
2023/12/12 00:20:00;;;;;;;;;;;8.00;99.90;;;;;;5077591;28;19970;-90
2023/12/12 00:22:25;;;;;;;;;;;8.00;99.90;;;;;;5077742;28;19924;-91
2023/12/12 00:24:51;;;;;;;;;;;8.00;99.90;;;;;;5093978;27;19923;-89
2023/12/12 00:27:16;;;;;;;;;;;8.10;99.90;;;;;;5078037;28;20571;-90
2023/12/12 00:29:42;;;;;;;;;;;8.00;99.90;;;;;;5073015;28;19920;-89
2023/12/12 00:32:07;;;;;;;;;;;8.00;99.90;;;;;;5076516;28;19916;-90
2023/12/12 00:34:36;;;;;;;;;;;8.00;99.90;;;;;;5074802;28;19916;-90
2023/12/12 00:37:02;;;;;;;;;;;7.90;99.90;;;;;;5075207;28;19919;-90
2023/12/12 00:39:30;;;;;;;;;;;7.90;99.90;;;;;;5077235;28;20334;-92
2023/12/12 00:41:55;;;;;;;;;;;8.00;99.90;;;;;;5078943;28;19924;-91
2023/12/12 00:44:21;;;;;;;;;;;7.90;99.90;;;;;;5079816;28;19962;-92
2023/12/12 00:46:46;;;;;;;;;;;7.90;99.90;;;;;;5080317;28;19912;-90
2023/12/12 00:49:12;;;;;;;;;;;7.90;99.90;;;;;;5076691;28;19920;-90
2023/12/12 00:51:38;;;;;;;;;;;7.80;99.90;;;;;;5075532;28;19916;-92
2023/12/12 00:54:11;;;;;;;;;;;7.90;99.90;;;;;;5075480;28;19969;-90
2023/12/12 00:56:36;;;;;;;;;;;7.90;99.90;;;;;;5074152;28;19916;-91
2023/12/12 00:59:02;;;;;;;;;;;8.00;99.90;;;;;;5073293;28;19997;-91
2023/12/12 01:01:27;;;;;;;;;;;8.00;99.90;;;;;;5072210;28;19916;-90
2023/12/12 01:03:53;;;;;;;;;;;7.90;99.90;;;;;;5056460;28;19985;-91
2023/12/12 01:06:26;;;;;;;;;;;7.90;99.90;;;;;;5074719;28;20252;-90
2023/12/12 01:08:51;;;;;;;;;;;8.00;99.90;;;;;;5059649;28;19928;-90
2023/12/12 01:11:17;;;;;;;;;;;8.00;99.90;;;;;;5059681;28;19928;-90
2023/12/12 01:13:43;;;;;;;;;;;8.00;99.90;;;;;;5077562;28;19924;-89
2023/12/12 01:16:08;;;;;;;;;;;8.00;99.90;;;;;;5076101;28;19920;-90
2023/12/12 01:18:37;;;;;;;;;;;8.00;99.90;;;;;;5067747;28;20132;-91
2023/12/12 01:21:03;;;;;;;;;;;8.10;99.90;;;;;;5076279;28;19964;-91
2023/12/12 01:23:50;;;;;;;;;;;8.00;99.90;;;;;;5073897;28;20516;-91
2023/12/12 01:26:19;;;;;;;;;;;8.00;99.90;;;;;;5090394;27;19960;-90
2023/12/12 01:28:45;;;;;;;;;;;8.10;99.90;;;;;;5075565;28;19960;-90
2023/12/12 01:31:11;;;;;;;;;;;8.10;99.90;;;;;;5074154;28;19994;-91
2023/12/12 01:33:36;;;;;;;;;;;8.10;99.90;;;;;;5076650;28;20010;-90
2023/12/12 01:36:02;;;;;;;;;;;8.10;99.90;;;;;;5074577;28;20362;-91
2023/12/12 01:38:28;;;;;;;;;;;8.20;99.90;;;;;;5076199;28;19927;-91
2023/12/12 01:40:54;;;;;;;;;;;8.20;99.90;;;;;;5074370;28;19929;-89
2023/12/12 01:43:37;;;;;;;;;;;8.20;99.90;;;;;;5075897;28;19954;-90
2023/12/12 01:46:05;;;;;;;;;;;8.10;99.90;;;;;;5077511;28;19969;-90
2023/12/12 01:48:31;;;;;;;;;;;8.10;99.90;;;;;;5077009;28;19924;-90
2023/12/12 01:50:57;;;;;;;;;;;8.20;99.90;;;;;;5066822;28;20012;-92
2023/12/12 01:53:33;;;;;;;;;;;8.20;99.90;;;;;;5075980;28;19927;-90
2023/12/12 01:56:00;;;;;;;;;;;8.00;99.90;;;;;;5075117;28;19913;-91
2023/12/12 01:58:26;;;;;;;;;;;8.00;99.90;;;;;;5073763;28;19912;-91
2023/12/12 02:00:52;;;;;;;;;;;8.10;99.90;;;;;;5072551;28;20310;-90
2023/12/12 02:03:18;;;;;;;;;;;8.00;99.90;;;;;;5072140;28;19927;-91
2023/12/12 02:05:44;;;;;;;;;;;8.00;99.90;;;;;;5073968;28;19916;-89
2023/12/12 02:08:09;;;;;;;;;;;8.10;99.90;;;;;;5073740;28;19920;-91
2023/12/12 02:10:35;;;;;;;;;;;8.00;99.90;;;;;;5075880;28;19920;-89
2023/12/12 02:13:02;;;;;;;;;;;8.00;99.90;;;;;;5060822;28;19924;-91
2023/12/12 02:15:27;;;;;;;;;;;8.10;99.90;;;;;;5074099;28;19949;-90
2023/12/12 02:17:53;;;;;;;;;;;8.00;99.90;;;;;;5074654;28;20424;-90
2023/12/12 02:20:18;;;;;;;;;;;8.00;99.90;;;;;;5075658;28;19912;-91
2023/12/12 02:22:44;;;;;;;;;;;8.00;99.90;;;;;;5078621;28;19926;-90
2023/12/12 02:25:10;;;;;;;;;;;8.20;99.90;;;;;;5075613;28;19916;-91
2023/12/12 02:27:38;;;;;;;;;;;8.20;99.90;;;;;;5075859;28;20291;-90
2023/12/12 02:30:07;;;;;;;;;;;8.30;99.90;;;;;;5071132;28;20043;-91
2023/12/12 02:32:32;;;;;;;;;;;8.20;99.90;;;;;;5088162;27;19931;-90
2023/12/12 02:34:58;;;;;;;;;;;8.20;99.90;;;;;;5073138;28;19955;-91
2023/12/12 02:37:23;;;;;;;;;;;8.20;99.90;;;;;;5072873;28;19926;-90
2023/12/12 02:39:49;;;;;;;;;;;8.20;99.90;;;;;;5071938;28;19920;-90
2023/12/12 02:42:14;;;;;;;;;;;8.20;99.90;;;;;;5075516;28;19922;-91
2023/12/12 02:44:40;;;;;;;;;;;8.20;99.90;;;;;;5062685;28;19919;-90
2023/12/12 02:47:05;;;;;;;;;;;8.20;99.90;;;;;;5073227;28;19955;-90
2023/12/12 02:49:31;;;;;;;;;;;8.30;99.90;;;;;;5074486;28;20919;-91
2023/12/12 02:51:56;;;;;;;;;;;8.20;99.90;;;;;;5078606;28;19920;-90
2023/12/12 02:54:22;;;;;;;;;;;8.20;99.90;;;;;;5073157;28;19924;-91
2023/12/12 02:56:47;;;;;;;;;;;8.20;99.90;;;;;;5072863;28;19920;-91
2023/12/12 02:59:13;;;;;;;;;;;8.20;99.90;;;;;;5056792;28;19920;-91
2023/12/12 03:01:41;;;;;;;;;;;8.20;99.90;;;;;;5072806;28;19921;-91
2023/12/12 03:04:06;;;;;;;;;;;8.20;99.90;;;;;;5073311;28;19920;-90
2023/12/12 03:06:32;;;;;;;;;;;8.20;99.90;;;;;;5074477;28;19916;-91
2023/12/12 03:08:57;;;;;;;;;;;8.20;99.90;;;;;;5057861;28;20854;-90
2023/12/12 03:11:23;;;;;;;;;;;8.20;99.90;;;;;;5072652;28;20538;-89
2023/12/12 03:13:48;;;;;;;;;;;8.30;99.90;;;;;;5074464;28;19930;-90
2023/12/12 03:16:14;;;;;;;;;;;8.20;99.90;;;;;;5073766;28;20405;-90
2023/12/12 03:18:39;;;;;;;;;;;8.10;99.90;;;;;;5072247;28;19972;-90
2023/12/12 03:21:05;;;;;;;;;;;8.20;99.90;;;;;;5065073;28;20015;-91
2023/12/12 03:23:31;;;;;;;;;;;8.20;99.90;;;;;;5073746;28;19920;-90
2023/12/12 03:25:56;;;;;;;;;;;8.20;99.90;;;;;;5073675;28;19985;-90
2023/12/12 03:28:22;;;;;;;;;;;8.20;99.90;;;;;;5072553;28;20006;-91
2023/12/12 03:30:47;;;;;;;;;;;8.10;99.90;;;;;;5071925;28;19978;-91
2023/12/12 03:33:13;;;;;;;;;;;8.10;99.90;;;;;;5069584;28;19920;-91
2023/12/12 03:35:38;;;;;;;;;;;8.10;99.90;;;;;;5055063;28;20007;-91
2023/12/12 03:38:04;;;;;;;;;;;8.00;99.90;;;;;;5067876;28;19943;-91
2023/12/12 03:40:29;;;;;;;;;;;8.00;99.90;;;;;;5065423;28;20346;-91
2023/12/12 03:42:55;;;;;;;;;;;8.00;99.90;;;;;;5053253;28;19982;-90
2023/12/12 03:45:20;;;;;;;;;;;7.90;99.90;;;;;;5070711;28;19975;-91
2023/12/12 03:47:46;;;;;;;;;;;7.80;99.90;;;;;;5049189;28;19977;-92
2023/12/12 03:50:14;;;;;;;;;;;7.80;99.90;;;;;;5076873;28;19923;-90
2023/12/12 03:52:40;;;;;;;;;;;7.80;99.90;;;;;;5088260;28;19924;-91
2023/12/12 03:55:08;;;;;;;;;;;7.60;99.90;;;;;;5078663;28;20268;-90
2023/12/12 03:57:34;;;;;;;;;;;7.60;99.90;;;;;;5072238;28;19920;-90
2023/12/12 03:59:59;;;;;;;;;;;7.60;99.90;;;;;;5073432;28;19927;-90
2023/12/12 04:02:25;;;;;;;;;;;7.60;99.90;;;;;;5069424;28;19921;-90
2023/12/12 04:04:50;;;;;;;;;;;7.60;99.90;;;;;;5072913;28;20498;-91
2023/12/12 04:07:19;;;;;;;;;;;7.50;99.90;;;;;;5075586;28;19928;-91
2023/12/12 04:09:44;;;;;;;;;;;7.40;99.90;;;;;;5095673;28;19924;-90
2023/12/12 04:12:12;;;;;;;;;;;7.40;99.90;;;;;;5073333;28;19924;-91
2023/12/12 04:14:38;;;;;;;;;;;7.40;99.90;;;;;;5072975;28;19949;-90
2023/12/12 04:17:06;;;;;;;;;;;7.40;99.90;;;;;;5077148;28;19919;-92
2023/12/12 04:19:35;;;;;;;;;;;7.50;99.90;;;;;;5076592;28;20497;-91
2023/12/12 04:22:03;;;;;;;;;;;7.50;99.90;;;;;;5081649;28;20405;-90
2023/12/12 04:24:28;;;;;;;;;;;7.50;99.90;;;;;;5078811;28;19916;-91
2023/12/12 04:26:54;;;;;;;;;;;7.30;99.90;;;;;;5076115;28;19927;-91
2023/12/12 04:29:19;;;;;;;;;;;7.30;99.90;;;;;;5078073;28;19920;-91
2023/12/12 04:31:48;;;;;;;;;;;7.30;99.90;;;;;;5078440;28;19920;-90
2023/12/12 04:34:13;;;;;;;;;;;7.20;99.90;;;;;;5082117;28;20585;-90
2023/12/12 04:36:39;;;;;;;;;;;7.20;99.90;;;;;;5081145;28;19970;-91
2023/12/12 04:39:05;;;;;;;;;;;7.20;99.90;;;;;;5079766;28;19922;-89
2023/12/12 04:41:31;;;;;;;;;;;7.10;99.90;;;;;;5067174;28;19935;-90
2023/12/12 04:43:56;;;;;;;;;;;7.00;99.90;;;;;;5082659;28;19920;-89
2023/12/12 04:46:23;;;;;;;;;;;7.00;99.90;;;;;;5079139;28;19927;-90
2023/12/12 04:48:51;;;;;;;;;;;7.00;99.90;;;;;;5078551;28;19920;-91
2023/12/12 04:51:18;;;;;;;;;;;7.00;99.90;;;;;;5082360;28;19935;-91
2023/12/12 04:53:44;;;;;;;;;;;6.90;99.90;;;;;;5080472;28;19971;-90
2023/12/12 04:56:09;;;;;;;;;;;6.90;99.90;;;;;;5062199;28;19924;-91
2023/12/12 04:58:35;;;;;;;;;;;6.80;99.90;;;;;;5080252;28;20476;-91
2023/12/12 05:01:00;;;;;;;;;;;6.80;99.90;;;;;;5082882;28;20417;-91
2023/12/12 05:03:26;;;;;;;;;;;6.70;99.90;;;;;;5081420;28;19973;-91
2023/12/12 05:05:54;;;;;;;;;;;6.70;99.90;;;;;;5079978;28;19918;-90
2023/12/12 05:08:19;;;;;;;;;;;6.80;99.90;;;;;;5078563;28;19923;-90
2023/12/12 05:10:45;;;;;;;;;;;6.60;99.90;;;;;;5062034;28;19928;-91
2023/12/12 05:13:10;;;;;;;;;;;6.60;99.90;;;;;;5080784;28;19916;-90
2023/12/12 05:15:36;;;;;;;;;;;6.50;99.90;;;;;;5081518;28;19911;-90
2023/12/12 05:18:02;;;;;;;;;;;6.60;99.90;;;;;;5078798;28;19920;-93
2023/12/12 05:20:28;;;;;;;;;;;6.50;99.90;;;;;;5081699;28;20383;-91
2023/12/12 05:22:54;;;;;;;;;;;6.50;99.90;;;;;;5075261;28;19920;-91
2023/12/12 05:25:22;;;;;;;;;;;6.50;99.90;;;;;;5081852;28;19926;-90
2023/12/12 05:27:47;;;;;;;;;;;6.40;99.90;;;;;;5081156;28;19939;-90
2023/12/12 05:30:13;;;;;;;;;;;6.40;99.90;;;;;;5077698;28;19916;-91
2023/12/12 05:32:39;;;;;;;;;;;6.30;99.90;;;;;;5080537;28;22412;-90
2023/12/12 05:35:07;;;;;;;;;;;6.30;99.90;;;;;;5095551;27;19916;-89
2023/12/12 05:37:36;;;;;;;;;;;6.30;99.90;;;;;;5080721;28;19913;-90
2023/12/12 05:40:02;;;;;;;;;;;6.30;99.90;;;;;;5070012;28;19931;-90
2023/12/12 05:42:30;;;;;;;;;;;6.20;99.90;;;;;;5077971;28;19916;-90
2023/12/12 05:44:56;;;;;;;;;;;6.20;99.90;;;;;;5080738;28;19951;-91
2023/12/12 05:47:21;;;;;;;;;;;6.10;99.90;;;;;;5077702;28;20299;-88
2023/12/12 05:49:47;;;;;;;;;;;6.10;99.90;;;;;;5079946;28;19959;-88
2023/12/12 05:52:12;;;;;;;;;;;6.10;99.90;;;;;;5079389;28;20007;-91
2023/12/12 05:54:38;;;;;;;;;;;6.00;99.90;;;;;;5076875;28;20389;-90
2023/12/12 05:57:03;;;;;;;;;;;6.10;99.90;;;;;;5076351;28;19920;-90
2023/12/12 05:59:29;;;;;;;;;;;6.00;99.90;;;;;;5075896;28;19923;-90
2023/12/12 06:01:54;;;;;;;;;;;6.00;99.90;;;;;;5075854;28;20454;-91
2023/12/12 06:04:20;;;;;;;;;;;5.90;99.90;;;;;;5076494;28;19927;-89
2023/12/12 06:06:45;;;;;;;;;;;6.00;99.90;;;;;;5075704;28;19954;-91
2023/12/12 06:09:11;;;;;;;;;;;5.90;99.90;;;;;;5074220;28;20387;-89
2023/12/12 06:11:37;;;;;;;;;;;5.90;99.90;;;;;;5078707;28;19932;-90
2023/12/12 06:14:03;;;;;;;;;;;5.90;99.90;;;;;;5077951;28;19977;-90
2023/12/12 06:16:29;;;;;;;;;;;5.90;99.90;;;;;;5063231;28;19916;-90
2023/12/12 06:18:55;;;;;;;;;;;6.00;99.90;;;;;;5074940;28;19920;-89
2023/12/12 06:21:20;;;;;;;;;;;6.00;99.90;;;;;;5063261;28;19924;-91
2023/12/12 06:23:46;;;;;;;;;;;6.00;99.90;;;;;;5061800;28;19955;-90
2023/12/12 06:26:11;;;;;;;;;;;6.00;99.90;;;;;;5088032;28;20053;-91
2023/12/12 06:28:37;;;;;;;;;;;6.10;99.90;;;;;;5076645;28;21544;-90
2023/12/12 06:31:02;;;;;;;;;;;6.20;99.90;;;;;;5077044;28;19920;-89
2023/12/12 06:33:29;;;;;;;;;;;6.20;99.90;;;;;;5076607;28;19975;-90
2023/12/12 06:35:58;;;;;;;;;;;6.30;99.90;;;;;;5077337;28;19912;-90
2023/12/12 06:38:24;;;;;;;;;;;6.30;99.90;;;;;;5081284;28;19916;-91
2023/12/12 06:40:50;;;;;;;;;;;6.30;99.90;;;;;;5101319;28;19920;-91
2023/12/12 06:43:16;;;;;;;;;;;6.30;99.90;;;;;;5081940;28;19912;-91
2023/12/12 06:45:41;;;;;;;;;;;6.40;99.90;;;;;;5065083;28;20052;-91
2023/12/12 06:48:07;;;;;;;;;;;6.40;99.90;;;;;;5083515;28;19916;-91
2023/12/12 06:50:32;;;;;;;;;;;6.40;99.90;;;;;;5098070;27;19920;-91
2023/12/12 06:52:58;;;;;;;;;;;6.50;99.90;;;;;;5082398;28;19923;-91
2023/12/12 06:55:25;;;;;;;;;;;6.50;99.90;;;;;;5077561;28;19916;-92
2023/12/12 06:57:51;;;;;;;;;;;6.50;99.90;;;;;;5074820;28;19920;-90
2023/12/12 07:00:16;;;;;;;;;;;6.40;99.90;;;;;;5076803;28;19927;-91
2023/12/12 07:02:42;;;;;;;;;;;6.30;99.90;;;;;;5084315;28;19959;-91
2023/12/12 07:05:08;;;;;;;;;;;6.40;99.90;;;;;;5074036;28;19920;-91
2023/12/12 07:07:33;;;;;;;;;;;6.40;99.90;;;;;;5076165;28;19924;-91
2023/12/12 07:09:59;;;;;;;;;;;6.50;99.90;;;;;;5076499;28;19924;-91
2023/12/12 07:12:24;;;;;;;;;;;6.60;99.90;;;;;;5096050;28;19927;-92
2023/12/12 07:14:52;;;;;;;;;;;6.60;99.90;;;;;;5064015;28;20139;-92
2023/12/12 07:17:17;;;;;;;;;;;6.70;99.90;;;;;;5064580;28;20007;-92
2023/12/12 07:19:46;;;;;;;;;;;6.70;99.90;;;;;;5052181;28;19935;-92
2023/12/12 07:22:11;;;;;;;;;;;6.80;99.90;;;;;;5071487;28;19920;-91
2023/12/12 07:24:39;;;;;;;;;;;6.80;99.90;;;;;;5069764;28;19920;-91
2023/12/12 07:27:06;;;;;;;;;;;6.90;99.90;;;;;;5074448;28;19931;-90
2023/12/12 07:29:32;;;;;;;;;;;7.00;99.90;;;;;;5072919;28;19912;-90
2023/12/12 07:31:57;;;;;;;;;;;7.10;99.90;;;;;;5058442;28;20426;-91
2023/12/12 07:34:23;;;;;;;;;;;7.00;99.90;;;;;;5072071;28;19951;-90
2023/12/12 07:36:56;;;;;;;;;;;7.10;99.90;;;;;;5071153;28;22320;-89
2023/12/12 07:39:21;;;;;;;;;;;7.20;99.90;;;;;;5064849;28;19916;-88
2023/12/12 07:41:50;;;;;;;;;;;7.10;99.90;;;;;;5073120;28;19916;-90
2023/12/12 07:44:15;;;;;;;;;;;7.20;99.90;;;;;;5056167;28;20437;-90
2023/12/12 07:46:41;;;;;;;;;;;7.20;99.90;;;;;;5073599;28;22006;-90
2023/12/12 07:49:07;;;;;;;;;;;7.30;99.90;;;;;;5070371;28;19923;-90
2023/12/12 07:51:32;;;;;;;;;;;7.30;99.90;;;;;;5074528;28;19920;-90
2023/12/12 07:53:58;;;;;;;;;;;7.20;99.90;;;;;;5072503;28;20963;-89
2023/12/12 07:56:24;;;;;;;;;;;7.30;99.90;;;;;;5073941;28;19942;-88
2023/12/12 07:58:49;;;;;;;;;;;7.50;99.90;;;;;;5055908;28;19916;-90
2023/12/12 08:01:15;;;;;;;;;;;7.40;99.90;;;;;;5073842;28;20046;-89
2023/12/12 08:03:41;;;;;;;;;;;7.30;99.90;;;;;;5076720;28;20301;-90
2023/12/12 08:06:07;;;;;;;;;;;7.50;99.90;;;;;;5059504;28;19917;-91
2023/12/12 08:08:36;;;;;;;;;;;7.50;99.90;;;;;;5088249;28;19933;-90
2023/12/12 08:11:02;;;;;;;;;;;7.60;99.90;;;;;;5075923;28;19961;-88
2023/12/12 08:13:27;;;;;;;;;;;7.60;99.90;;;;;;5075633;28;19950;-89
2023/12/12 08:15:53;;;;;;;;;;;7.80;99.90;;;;;;5077376;28;20027;-89
2023/12/12 08:18:18;;;;;;;;;;;7.90;99.90;;;;;;5077869;28;19959;-90
2023/12/12 08:20:44;;;;;;;;;;;7.90;99.90;;;;;;5078595;28;19920;-89
2023/12/12 08:23:09;;;;;;;;;;;7.90;99.90;;;;;;5077014;28;19919;-89
2023/12/12 08:25:35;;;;;;;;;;;7.90;99.90;;;;;;5079723;28;20401;-89
2023/12/12 08:28:00;;;;;;;;;;;8.00;99.90;;;;;;5079649;28;20259;-89
2023/12/12 08:30:28;;;;;;;;;;;8.10;99.90;;;;;;5079220;28;20624;-89
2023/12/12 08:32:54;;;;;;;;;;;8.20;99.90;;;;;;5076447;28;19942;-89
2023/12/12 08:35:20;;;;;;;;;;;8.10;99.90;;;;;;5077911;28;21709;-89
2023/12/12 08:37:48;;;;;;;;;;;8.20;99.90;;;;;;5076847;28;20006;-90
2023/12/12 08:40:13;;;;;;;;;;;8.20;99.90;;;;;;5090656;27;19916;-91
2023/12/12 08:42:49;;;;;;;;;;;8.20;99.90;;;;;;5074949;28;19945;-92
2023/12/12 08:45:14;;;;;;;;;;;8.30;99.90;;;;;;5074654;28;19919;-90
2023/12/12 08:47:40;;;;;;;;;;;8.30;99.90;;;;;;5078672;28;19920;-90
2023/12/12 08:50:05;;;;;;;;;;;8.40;99.90;;;;;;5081772;28;19958;-90
2023/12/12 08:52:34;;;;;;;;;;;8.50;99.90;;;;;;5094390;27;19955;-89
2023/12/12 08:55:07;;;;;;;;;;;8.40;99.90;;;;;;5075454;28;19920;-90
2023/12/12 08:57:34;;;;;;;;;;;8.40;99.90;;;;;;5073577;28;19920;-88
2023/12/12 09:00:01;;;;;;;;;;;8.40;99.90;;;;;;5075078;28;19963;-90
2023/12/12 09:02:26;;;;;;;;;;;8.40;99.90;;;;;;5059359;28;19924;-89
2023/12/12 09:04:52;;;;;;;;;;;8.30;99.90;;;;;;5076108;28;20416;-90
2023/12/12 09:07:17;;;;;;;;;;;8.40;99.90;;;;;;5076806;28;19920;-89
2023/12/12 09:09:43;;;;;;;;;;;8.30;99.90;;;;;;5072524;28;19927;-90
2023/12/12 09:12:09;;;;;;;;;;;8.40;99.90;;;;;;5078097;28;19988;-90
2023/12/12 09:14:35;;;;;;;;;;;8.40;99.90;;;;;;5077650;28;19942;-89
2023/12/12 09:17:00;;;;;;;;;;;8.50;99.90;;;;;;5072236;28;19920;-90
2023/12/12 09:19:25;;;;;;;;;;;8.50;99.90;;;;;;5073253;28;20578;-89
2023/12/12 09:21:53;;;;;;;;;;;8.60;99.90;;;;;;5074114;28;19981;-88
2023/12/12 09:24:19;;;;;;;;;;;8.50;99.90;;;;;;5075151;28;20011;-89
2023/12/12 09:26:45;;;;;;;;;;;8.60;99.90;;;;;;5091380;27;19931;-89
2023/12/12 09:29:10;;;;;;;;;;;8.60;99.90;;;;;;5057862;28;19920;-88
2023/12/12 09:31:38;;;;;;;;;;;8.60;99.90;;;;;;5077526;28;19913;-89
2023/12/12 09:34:04;;;;;;;;;;;8.70;99.90;;;;;;5057321;28;19920;-88
2023/12/12 09:36:29;;;;;;;;;;;8.70;99.90;;;;;;5077800;28;19926;-89
2023/12/12 09:38:55;;;;;;;;;;;8.70;99.90;;;;;;5072592;28;19920;-91
2023/12/12 09:41:23;;;;;;;;;;;8.70;99.90;;;;;;5075252;28;19958;-89
2023/12/12 09:43:49;;;;;;;;;;;8.70;99.90;;;;;;5072997;28;19924;-90
2023/12/12 09:46:17;;;;;;;;;;;8.70;99.90;;;;;;5083596;28;20003;-90
2023/12/12 09:48:43;;;;;;;;;;;8.80;99.90;;;;;;5070313;28;19997;-90
2023/12/12 09:51:12;;;;;;;;;;;8.80;99.90;;;;;;5071796;28;19912;-90
2023/12/12 09:53:40;;;;;;;;;;;8.90;99.90;;;;;;5072103;28;20422;-90
2023/12/12 09:56:07;;;;;;;;;;;8.90;99.90;;;;;;5074179;28;19956;-89
2023/12/12 09:58:32;;;;;;;;;;;8.80;99.90;;;;;;5076695;28;19931;-89
2023/12/12 10:01:01;;;;;;;;;;;8.80;99.90;;;;;;5076689;28;19913;-90
2023/12/12 10:03:26;;;;;;;;;;;8.80;99.90;;;;;;5075405;28;19920;-88
2023/12/12 10:05:53;;;;;;;;;;;8.90;99.90;;;;;;5068892;28;19920;-91
2023/12/12 10:08:19;;;;;;;;;;;8.90;99.90;;;;;;5076362;28;19919;-89
2023/12/12 10:10:44;;;;;;;;;;;9.00;99.90;;;;;;5077106;28;20236;-90
2023/12/12 10:13:10;;;;;;;;;;;8.90;99.90;;;;;;5091657;27;20429;-90
2023/12/12 10:15:36;;;;;;;;;;;8.90;99.90;;;;;;5078405;28;20014;-90
2023/12/12 10:18:01;;;;;;;;;;;9.00;99.90;;;;;;5074747;28;20589;-89
2023/12/12 10:20:31;;;;;;;;;;;9.00;99.90;;;;;;5076306;28;19920;-89
2023/12/12 10:22:57;;;;;;;;;;;9.00;99.90;;;;;;5074788;28;19920;-90
2023/12/12 10:25:23;;;;;;;;;;;9.00;99.90;;;;;;5073328;28;19926;-90
2023/12/12 10:27:49;;;;;;;;;;;9.00;99.90;;;;;;5076372;28;19916;-89
2023/12/12 10:30:15;;;;;;;;;;;9.20;99.90;;;;;;5072927;28;19916;-90
2023/12/12 10:32:40;;;;;;;;;;;9.10;99.90;;;;;;5075684;28;19920;-89
2023/12/12 10:35:06;;;;;;;;;;;9.20;99.90;;;;;;5061486;28;19924;-88
2023/12/12 10:37:32;;;;;;;;;;;9.20;99.90;;;;;;5074965;28;19912;-89
2023/12/12 10:40:17;;;;;;;;;;;9.20;99.90;;;;;;5074929;28;19916;-90
2023/12/12 10:42:43;;;;;;;;;;;9.20;99.90;;;;;;5074105;28;19923;-89
2023/12/12 10:45:10;;;;;;;;;;;9.20;99.90;;;;;;5072288;28;19912;-89
2023/12/12 10:47:38;;;;;;;;;;;9.30;99.90;;;;;;5073308;28;19912;-90
2023/12/12 10:50:09;;;;;;;;;;;9.30;99.90;;;;;;5089523;28;19949;-89
2023/12/12 10:52:35;;;;;;;;;;;9.40;99.90;;;;;;5091058;28;19924;-89
2023/12/12 10:55:01;;;;;;;;;;;9.40;99.90;;;;;;5073561;28;19927;-90
2023/12/12 10:57:29;;;;;;;;;;;9.40;99.90;;;;;;5072754;28;19948;-90
2023/12/12 10:59:56;;;;;;;;;;;9.40;99.90;;;;;;5074245;28;19920;-90
2023/12/12 11:02:23;;;;;;;;;;;9.50;99.90;;;;;;5073803;28;20024;-90
2023/12/12 11:04:49;;;;;;;;;;;9.50;99.90;;;;;;5074005;28;19915;-89
2023/12/12 11:07:15;;;;;;;;;;;9.50;99.90;;;;;;5074014;28;19927;-90
2023/12/12 11:09:41;;;;;;;;;;;9.50;99.90;;;;;;5070235;28;19924;-91
2023/12/12 11:12:10;;;;;;;;;;;9.60;99.90;;;;;;5074380;28;19924;-89
2023/12/12 11:14:36;;;;;;;;;;;9.60;99.90;;;;;;5072355;28;19927;-89
2023/12/12 11:17:02;;;;;;;;;;;9.60;99.90;;;;;;5074244;28;20016;-91
2023/12/12 11:19:27;;;;;;;;;;;9.70;99.90;;;;;;5078252;28;20003;-91
2023/12/12 11:21:55;;;;;;;;;;;9.80;99.90;;;;;;5079567;28;19942;-90
2023/12/12 11:24:21;;;;;;;;;;;9.90;99.90;;;;;;5072301;28;19920;-91
2023/12/12 11:26:47;;;;;;;;;;;9.80;99.90;;;;;;5073230;28;19919;-90
2023/12/12 11:29:18;;;;;;;;;;;9.80;99.90;;;;;;5080475;28;19923;-90
2023/12/12 11:31:56;;;;;;;;;;;9.90;99.90;;;;;;5071368;28;20011;-90
2023/12/12 11:34:22;;;;;;;;;;;9.90;99.90;;;;;;5080241;28;19927;-90
2023/12/12 11:36:57;;;;;;;;;;;10.00;99.90;;;;;;5079045;28;20283;-91
2023/12/12 11:39:25;;;;;;;;;;;10.00;99.90;;;;;;5077331;28;20036;-91
2023/12/12 11:41:52;;;;;;;;;;;10.00;99.90;;;;;;5067865;28;20042;-89
2023/12/12 11:44:22;;;;;;;;;;;9.90;99.90;;;;;;5076368;28;20763;-91
2023/12/12 11:46:48;;;;;;;;;;;10.10;99.90;;;;;;5082720;28;19946;-89
2023/12/12 11:49:16;;;;;;;;;;;10.10;99.90;;;;;;5075461;28;20446;-90
2023/12/12 11:51:45;;;;;;;;;;;10.10;99.90;;;;;;5066098;28;20256;-90
2023/12/12 11:54:17;;;;;;;;;;;10.10;99.90;;;;;;5074059;28;20098;-90
2023/12/12 11:56:42;;;;;;;;;;;10.10;99.90;;;;;;5075036;28;19920;-90
2023/12/12 11:59:08;;;;;;;;;;;10.20;99.90;;;;;;5090200;27;19961;-90
2023/12/12 12:01:33;;;;;;;;;;;10.20;99.90;;;;;;5074558;28;19938;-90
2023/12/12 12:04:06;;;;;;;;;;;10.30;99.90;;;;;;5074614;28;19942;-89
2023/12/12 12:06:32;;;;;;;;;;;10.20;99.90;;;;;;5073747;28;19921;-89
2023/12/12 12:08:57;;;;;;;;;;;10.20;99.90;;;;;;5075551;28;20004;-90
2023/12/12 12:11:35;;;;;;;;;;;10.20;99.90;;;;;;5077465;28;20617;-89
2023/12/12 12:14:02;;;;;;;;;;;10.20;99.90;;;;;;5075649;28;19931;-90
2023/12/12 12:16:28;;;;;;;;;;;10.20;99.90;;;;;;5074284;28;19920;-89
2023/12/12 12:18:54;;;;;;;;;;;10.20;99.90;;;;;;5074368;28;19947;-89
2023/12/12 12:21:26;;;;;;;;;;;10.20;99.90;;;;;;5083910;28;19927;-90
2023/12/12 12:23:52;;;;;;;;;;;10.20;99.90;;;;;;5075861;28;19920;-89
2023/12/12 12:26:22;;;;;;;;;;;10.20;99.90;;;;;;5073031;28;20422;-91
2023/12/12 12:28:50;;;;;;;;;;;10.20;99.90;;;;;;5075484;28;19920;-88
2023/12/12 12:31:26;;;;;;;;;;;10.20;99.90;;;;;;5073190;28;20010;-90
2023/12/12 12:33:51;;;;;;;;;;;10.20;99.90;;;;;;5070308;28;20322;-90
2023/12/12 12:36:17;;;;;;;;;;;10.30;99.90;;;;;;5073377;28;19920;-89
2023/12/12 12:38:42;;;;;;;;;;;10.30;99.90;;;;;;5072778;28;20008;-89
2023/12/12 12:41:20;;;;;;;;;;;10.30;99.90;;;;;;5074583;28;21613;-90
2023/12/12 12:43:52;;;;;;;;;;;10.30;99.90;;;;;;5073497;28;20664;-90
2023/12/12 12:46:18;;;;;;;;;;;10.20;99.90;;;;;;5071162;28;19927;-90
2023/12/12 12:48:44;;;;;;;;;;;10.20;99.90;;;;;;5078353;28;19912;-90
2023/12/12 12:51:09;;;;;;;;;;;10.20;99.90;;;;;;5070516;28;19966;-90
2023/12/12 12:53:37;;;;;;;;;;;10.20;99.90;;;;;;5077181;28;20011;-91
2023/12/12 12:56:03;;;;;;;;;;;10.20;99.90;;;;;;5076872;28;20294;-90
2023/12/12 12:58:29;;;;;;;;;;;10.10;99.90;;;;;;5078280;28;19920;-91
2023/12/12 13:00:55;;;;;;;;;;;10.10;99.90;;;;;;5065751;28;19993;-91
2023/12/12 13:03:23;;;;;;;;;;;10.20;99.90;;;;;;5077172;28;19971;-90
2023/12/12 13:05:48;;;;;;;;;;;10.20;99.90;;;;;;5074136;28;19920;-90
2023/12/12 13:08:14;;;;;;;;;;;10.10;99.90;;;;;;5072847;28;19966;-89
2023/12/12 13:10:40;;;;;;;;;;;10.10;99.90;;;;;;5073050;28;19920;-89
2023/12/12 13:13:06;;;;;;;;;;;10.10;99.90;;;;;;5076832;28;19924;-90
2023/12/12 13:15:31;;;;;;;;;;;10.10;99.90;;;;;;5073273;28;20613;-90
2023/12/12 13:17:57;;;;;;;;;;;10.10;99.90;;;;;;5075397;28;19920;-91
2023/12/12 13:20:22;;;;;;;;;;;10.20;99.90;;;;;;5075249;28;19927;-91
2023/12/12 13:22:48;;;;;;;;;;;10.20;99.90;;;;;;5072820;28;19920;-90
2023/12/12 13:25:14;;;;;;;;;;;10.20;99.90;;;;;;5082268;28;20054;-90
2023/12/12 13:27:40;;;;;;;;;;;10.30;99.90;;;;;;5076186;28;19920;-91
2023/12/12 13:30:10;;;;;;;;;;;10.30;99.90;;;;;;5078662;28;19920;-89
2023/12/12 13:32:36;;;;;;;;;;;10.20;99.90;;;;;;5072464;28;19990;-90
2023/12/12 13:35:02;;;;;;;;;;;10.30;99.90;;;;;;5072495;28;19920;-90
2023/12/12 13:37:28;;;;;;;;;;;10.10;99.90;;;;;;5072651;28;19916;-90
2023/12/12 13:39:54;;;;;;;;;;;10.10;99.90;;;;;;5072768;28;20525;-91
2023/12/12 13:42:19;;;;;;;;;;;10.20;99.90;;;;;;5072040;28;20395;-91
2023/12/12 13:44:45;;;;;;;;;;;10.20;99.90;;;;;;5073474;28;19920;-90
2023/12/12 13:47:10;;;;;;;;;;;10.10;99.90;;;;;;5074766;28;19923;-90
2023/12/12 13:49:36;;;;;;;;;;;10.20;99.90;;;;;;5074765;28;20014;-90
2023/12/12 13:52:03;;;;;;;;;;;10.20;99.90;;;;;;5074724;28;19920;-89
2023/12/12 13:54:29;;;;;;;;;;;10.10;99.90;;;;;;5074142;28;20550;-91
2023/12/12 13:56:54;;;;;;;;;;;10.10;99.90;;;;;;5072764;28;19927;-89
2023/12/12 13:59:20;;;;;;;;;;;10.00;99.90;;;;;;5073278;28;19920;-90
2023/12/12 14:01:45;;;;;;;;;;;10.00;99.90;;;;;;5075700;28;19928;-89
2023/12/12 14:04:11;;;;;;;;;;;10.00;99.90;;;;;;5071048;28;20057;-91
2023/12/12 14:06:36;;;;;;;;;;;10.10;99.90;;;;;;5075964;28;20679;-91
2023/12/12 14:09:03;;;;;;;;;;;10.10;99.90;;;;;;5074399;28;19969;-89
2023/12/12 14:11:31;;;;;;;;;;;10.10;99.90;;;;;;5050709;28;19939;-89
2023/12/12 14:13:56;;;;;;;;;;;10.10;99.90;;;;;;5074895;28;20893;-90
2023/12/12 14:16:22;;;;;;;;;;;10.10;99.90;;;;;;5073815;28;19920;-90
2023/12/12 14:18:47;;;;;;;;;;;10.20;99.90;;;;;;5073580;28;19967;-91
2023/12/12 14:21:13;;;;;;;;;;;10.00;99.90;;;;;;5072000;28;19998;-89
2023/12/12 14:23:43;;;;;;;;;;;10.00;99.90;;;;;;5072958;28;19969;-88